Nearby METAR Reports

 

KSEE - San Diego/Santee, California, USA
Distance from station: E 4mi, 6km
Updated: 12/18/2017 7:47am
Clear
Clear
 Wind from calm
Wind: Calm
Temperature: 41°F , 5°C
Dew Point: 25°F , -4°C
Humidity: 53%
Barometer: 30.17 inHg , 1021.7 hPa
Clouds: Clear
Visibility: 10 miles , 16 km
2017/12/18 15:47 KSEE 181547Z 00000KT 10SM SKC 05/M04 A3017
KMYF - San Diego/Mntgmy, California, USA
Distance from station: W 6mi, 10km
Updated: 12/18/2017 7:53am
Clear
Clear
 Wind from calm
Wind: Calm
Temperature: 55°F , 13°C
Dew Point: 25°F , -4°C
Humidity: 31%
Barometer: 30.15 inHg , 1021 hPa
Clouds: Clear
Visibility: 10 miles , 16 km
2017/12/18 15:53 KMYF 181553Z 00000KT 10SM CLR 13/M04 A3015 RMK AO2 SLP208 T01331044
 
KNKX - Miramar Nas/San, California, USA
Distance from station: WNW 7mi, 11km
Updated: 12/18/2017 7:55am
Clear
Clear
 Wind from E
Wind: E 7 mph , 11 km/h
Temperature: 59°F , 15°C
Dew Point: 25°F , -4°C
Humidity: 27%
Barometer: 30.15 inHg , 1021 hPa
Clouds: Clear
Visibility: 10 miles , 16 km
2017/12/18 15:55 KNKX 181555Z 08006KT 10SM CLR 15/M04 A3015 RMK AO2 SLP206 T01501044
KSAN - San Diego, California, USA
Distance from station: WSW 11mi, 17km
Updated: 12/18/2017 7:51am
Clear
Clear
 Wind from SW
Wind: SW 3 mph , 6 km/h
Temperature: 55°F , 13°C
Dew Point: 36°F , 2°C
Humidity: 47%
Barometer: 30.17 inHg , 1021.7 hPa
Clouds: Clear
Visibility: 10 miles , 16 km
2017/12/18 15:51 KSAN 181551Z 22003KT 10SM CLR 13/02 A3017 RMK AO2 SLP215 T01280022
 
KNZY - North Island Nas, California, USA
Distance from station: SW 13mi, 22km
Updated: 12/18/2017 7:52am
Few Clouds
Few Clouds
 Wind from calm
Wind: Calm
Temperature: 52°F , 11°C
Dew Point: 32°F , 0°C
Humidity: 47%
Barometer: 30.15 inHg , 1021 hPa
Clouds: Few Clouds
Visibility: 10 miles , 16 km
Cloud details: Few Clouds 25000 ft
2017/12/18 15:52 KNZY 181552Z 00000KT 10SM FEW250 11/00 A3015 RMK SLP208 T01110000
KRNM - Ramona, California, USA
Distance from station: NNE 16mi, 26km
Updated: 12/18/2017 7:53am
Clear
Clear
 Wind from calm
Wind: Calm
Temperature: 41°F , 5°C
Dew Point: 23°F , -5°C
Humidity: 49%
Barometer: 30.16 inHg , 1021.3 hPa
Clouds: Clear
Visibility: 10 miles , 16 km
2017/12/18 15:53 KRNM 181553Z AUTO 00000KT 10SM CLR 05/M05 A3016 RMK AO2 SLP216 T00501050
 
KSDM - San Diego/Brown, California, USA
Distance from station: S 16mi, 26km
Updated: 12/18/2017 7:53am
Clear
Clear
 Wind from ESE
Wind: ESE 6 mph , 9 km/h
Temperature: 52°F , 11°C
Dew Point: 25°F , -4°C
Humidity: 35%
Barometer: 30.15 inHg , 1021 hPa
Clouds: Clear
Visibility: 10 miles , 16 km
2017/12/18 15:53 KSDM 181553Z 11005KT 10SM CLR 11/M04 A3015 RMK AO2 SLP210 T01061039
KNRS - Imperial Beach, California, USA
Distance from station: SSW 18mi, 29km
Updated: 12/18/2017 7:56am
Few Clouds
Few Clouds
 Wind from E
Wind: E 8 mph , 13 km/h
Temperature: 54°F , 12°C
Dew Point: 25°F , -4°C
Humidity: 33%
Barometer: 30.16 inHg , 1021.3 hPa
Clouds: Few Clouds
Visibility: 9 miles , 14 km
Cloud details: Few Clouds 25000 ft
2017/12/18 15:56 KNRS 181556Z 08007KT 9SM FEW250 12/M04 A3016 RMK AO2 SLP211 T01171044 $
 
MMTJ - Tijuana Intl Arp, Mexico
Distance from station: S 20mi, 32km
Updated: 12/18/2017 7:43am
Clear
Clear
 Wind from ESE
Wind: ESE 3 mph , 6 km/h
Clouds: Clear
Visibility: 10 miles , 16 km
2017/12/18 15:43 MMTJ 181543Z 12003KT 10SM SKC 13M07 A3016 RMK HZY
KCRQ - Carlsbad, California, USA
Distance from station: NW 26mi, 43km
Updated: 12/18/2017 7:53am
Clear
Clear
 Wind from calm
Wind: Calm
Temperature: 55°F , 13°C
Dew Point: 27°F , -3°C
Humidity: 33%
Barometer: 30.14 inHg , 1020.7 hPa
Clouds: Clear
Visibility: 10 miles , 16 km
2017/12/18 15:53 KCRQ 181553Z AUTO 00000KT 10SM CLR 13/M03 A3014 RMK AO2 SLP207 T01281033
 
KOKB - Oceanside, California, USA
Distance from station: NW 33mi, 54km
Updated: 12/17/2017 11:52pm
NOT Current

 Wind from NNE
Wind: NNE 5 mph , 7 km/h
Temperature: 50°F , 10°C
Wind Chill: 48°F , 9°C
Dew Point: 28°F , -2°C
Humidity: 43%
Barometer: 30.05 inHg , 1017.6 hPa
Visibility: 10 miles , 16 km
2017/12/18 07:52 KOKB 180752Z AUTO 02004KT 10SM 10/M02 A3005 RMK AO2 SLP175 T01001022 402440033 TSNO $
KCZZ - Campo, California, USA
Distance from station: ESE 35mi, 56km
Updated: 12/18/2017 7:52am

 Wind from calm
Wind: Calm
Temperature: 37°F , 3°C
Dew Point: 18°F , -8°C
Humidity: 45%
Barometer: 30.12 inHg , 1020 hPa
2017/12/18 15:52 KCZZ 181552Z AUTO 00000KT 03/M08 A3012 RMK AO1 SLP198 T00281083
 
KNFG - Camp Pendleton, California, USA
Distance from station: NNW 37mi, 59km
Updated: 12/18/2017 7:55am
Few Clouds
Few Clouds
 Wind from calm
Wind: Calm
Temperature: 43°F , 6°C
Dew Point: 21°F , -6°C
Humidity: 42%
Barometer: 30.17 inHg , 1021.7 hPa
Clouds: Few Clouds
Visibility: 10 miles , 16 km
Cloud details: Few Clouds 25000 ft
2017/12/18 15:55 KNFG 181555Z 00000KT 10SM FEW250 06/M06 A3017 RMK AO2 SLP216 T00561056
KRIV - Riverside/March, California, USA
Distance from station: N 74mi, 119km
Updated: 12/18/2017 7:58am
Clear
Clear
 Wind from calm
Wind: Calm
Temperature: 43°F , 6°C
Dew Point: 18°F , -8°C
Humidity: 36%
Barometer: 30.17 inHg , 1021.7 hPa
Clouds: Clear
Visibility: 10 miles , 16 km
2017/12/18 15:58 KRIV 181558Z AUTO 00000KT 10SM CLR 06/M08 A3017 RMK AO2 SLP220 T00571079
 
KTRM - Thermal/Palm Spg, California, USA
Distance from station: NE 75mi, 121km
Updated: 12/18/2017 7:52am
Clear
Clear
 Wind from calm
Wind: Calm
Temperature: 46°F , 8°C
Dew Point: 25°F , -4°C
Humidity: 43%
Barometer: 30.15 inHg , 1021 hPa
Clouds: Clear
Visibility: 10 miles , 16 km
2017/12/18 15:52 KTRM 181552Z AUTO 00000KT 10SM CLR 08/M04 A3015 RMK AO2 SLP211 T00831044
KPSP - Palm Springs, California, USA
Distance from station: NNE 76mi, 122km
Updated: 12/18/2017 7:53am
Clear
Clear
 Wind from NNW
Wind: NNW 7 mph , 11 km/h
Temperature: 52°F , 11°C
Dew Point: 18°F , -8°C
Humidity: 26%
Barometer: 30.18 inHg , 1022 hPa
Clouds: Clear
Visibility: 10 miles , 16 km
2017/12/18 15:53 KPSP 181553Z 33006KT 10SM CLR 11/M08 A3018 RMK AO2 SLP219 T01111078
 
KSNA - Costa Mesa, California, USA
Distance from station: NW 76mi, 123km
Updated: 12/18/2017 7:53am
Few Clouds
Few Clouds
 Wind from varies
Wind: varies 3 mph , 6 km/h
Temperature: 52°F , 11°C
Dew Point: 30°F , -1°C
Humidity: 44%
Barometer: 30.15 inHg , 1021 hPa
Clouds: Few Clouds
Visibility: 10 miles , 16 km
Cloud details: Few Clouds 21000 ft
2017/12/18 15:53 KSNA 181553Z VRB03KT 10SM FEW210 11/M01 A3015 RMK AO2 SLP210 T01111006
KNJK - El Centro Naf, California, USA
Distance from station: E 79mi, 127km
Updated: 12/18/2017 7:56am
Clear
Clear
 Wind from W
Wind: W 6 mph , 9 km/h
Temperature: 45°F , 7°C
Wind Chill: 42°F , 6°C
Dew Point: 19°F , -7°C
Humidity: 37%
Barometer: 30.18 inHg , 1022 hPa
Clouds: Clear
Visibility: 10 miles , 16 km
2017/12/18 15:56 KNJK 181556Z 27005KT 10SM CLR 07/M07 A3018 RMK AO2 SLP235 T00721072 $
 
KAJO - Corona Muni, California, USA
Distance from station: NNW 82mi, 132km
Updated: 12/18/2017 7:56am
Clear
Clear
 Wind from calm
Wind: Calm
Temperature: 43°F , 6°C
Dew Point: 27°F , -3°C
Humidity: 53%
Barometer: 30.17 inHg , 1021.7 hPa
Clouds: Clear
Visibility: 10 miles , 16 km
2017/12/18 15:56 KAJO 181556Z AUTO 00000KT 10SM CLR 06/M03 A3017 RMK AO2 SLP233 T00611033